ME06 weather

Flying Ed Airport
Charlotte, Maine, United States

Public forecast

Using degrees Fahrenheit for public forecast. Weather courtesy of forecast.io.

METAR (pilot weather report)

Closest report is Hancock County-Bar Harbor Airport, 56.7 nm (105.0 km) SW. Retrieved 2019/08/17 17:11 UTC (2 minutes ago):

KBHB 171711Z AUTO VRB03KT 10SM BKN010 OVC014 19/17 A3011 RMK AO2 CIG 007V013

TAF (pilot weather forecast)

Closest forecast is Hancock County-Bar Harbor Airport, 56.7 nm (105.0 km) SW. Retrieved 2019/08/17 12:22 UTC (5 hours ago):

TAF KBHB 171120Z 1712/1812 16004KT P6SM VCSH OVC005 FM171500 16006KT P6SM BKN012 FM180500 00000KT 2SM BR OVC003 FM181100 00000KT P6SM OVC002